sensor_id;sensor_type;location;lat;lon;timestamp;temperature;humidity
55369;DHT22;41247;49.736;8.752;2023-10-08T00:02:34;16.40;99.90
55369;DHT22;41247;49.736;8.752;2023-10-08T00:06:19;16.40;99.90
55369;DHT22;41247;49.736;8.752;2023-10-08T00:10:00;16.40;99.90
55369;DHT22;41247;49.736;8.752;2023-10-08T00:13:42;16.40;99.90
55369;DHT22;41247;49.736;8.752;2023-10-08T00:17:23;16.40;99.90
55369;DHT22;41247;49.736;8.752;2023-10-08T00:21:06;16.40;99.90
55369;DHT22;41247;49.736;8.752;2023-10-08T00:24:47;16.40;99.90
55369;DHT22;41247;49.736;8.752;2023-10-08T00:28:28;16.40;99.90
55369;DHT22;41247;49.736;8.752;2023-10-08T00:32:09;16.40;99.90
55369;DHT22;41247;49.736;8.752;2023-10-08T00:35:52;16.40;99.90
55369;DHT22;41247;49.736;8.752;2023-10-08T00:39:33;16.30;99.90
55369;DHT22;41247;49.736;8.752;2023-10-08T00:43:35;16.20;99.90
55369;DHT22;41247;49.736;8.752;2023-10-08T00:47:16;16.10;99.90
55369;DHT22;41247;49.736;8.752;2023-10-08T00:50:57;16.10;99.90
55369;DHT22;41247;49.736;8.752;2023-10-08T00:54:39;16.20;99.90
55369;DHT22;41247;49.736;8.752;2023-10-08T00:58:21;16.10;99.90
55369;DHT22;41247;49.736;8.752;2023-10-08T01:02:02;16.10;99.90
55369;DHT22;41247;49.736;8.752;2023-10-08T01:05:42;16.00;99.90
55369;DHT22;41247;49.736;8.752;2023-10-08T01:09:23;16.00;99.90
55369;DHT22;41247;49.736;8.752;2023-10-08T01:13:04;15.90;99.90
55369;DHT22;41247;49.736;8.752;2023-10-08T01:16:44;15.90;99.90
55369;DHT22;41247;49.736;8.752;2023-10-08T01:20:25;15.90;99.90
55369;DHT22;41247;49.736;8.752;2023-10-08T01:24:06;15.90;99.90
55369;DHT22;41247;49.736;8.752;2023-10-08T01:27:47;15.90;99.90
55369;DHT22;41247;49.736;8.752;2023-10-08T01:31:27;15.80;99.90
55369;DHT22;41247;49.736;8.752;2023-10-08T01:35:08;15.80;99.90
55369;DHT22;41247;49.736;8.752;2023-10-08T01:39:00;15.80;99.90
55369;DHT22;41247;49.736;8.752;2023-10-08T01:42:40;15.80;99.90
55369;DHT22;41247;49.736;8.752;2023-10-08T01:46:21;15.70;99.90
55369;DHT22;41247;49.736;8.752;2023-10-08T01:50:02;15.70;99.90
55369;DHT22;41247;49.736;8.752;2023-10-08T01:53:42;15.60;99.90
55369;DHT22;41247;49.736;8.752;2023-10-08T01:57:23;15.60;99.90
55369;DHT22;41247;49.736;8.752;2023-10-08T02:01:03;15.60;99.90
55369;DHT22;41247;49.736;8.752;2023-10-08T02:04:44;15.60;99.90
55369;DHT22;41247;49.736;8.752;2023-10-08T02:08:25;15.60;99.90
55369;DHT22;41247;49.736;8.752;2023-10-08T02:12:06;15.60;99.90
55369;DHT22;41247;49.736;8.752;2023-10-08T02:15:50;15.50;99.90
55369;DHT22;41247;49.736;8.752;2023-10-08T02:19:31;15.50;99.90
55369;DHT22;41247;49.736;8.752;2023-10-08T02:23:12;15.40;99.90
55369;DHT22;41247;49.736;8.752;2023-10-08T02:26:53;15.40;99.90
55369;DHT22;41247;49.736;8.752;2023-10-08T02:30:35;15.30;99.90
55369;DHT22;41247;49.736;8.752;2023-10-08T02:34:16;15.20;99.90
55369;DHT22;41247;49.736;8.752;2023-10-08T02:37:57;15.20;99.90
55369;DHT22;41247;49.736;8.752;2023-10-08T02:41:37;15.10;99.90
55369;DHT22;41247;49.736;8.752;2023-10-08T02:45:18;15.10;99.90
55369;DHT22;41247;49.736;8.752;2023-10-08T02:48:58;15.10;99.90
55369;DHT22;41247;49.736;8.752;2023-10-08T02:52:39;15.10;99.90
55369;DHT22;41247;49.736;8.752;2023-10-08T02:56:19;15.00;99.90
55369;DHT22;41247;49.736;8.752;2023-10-08T03:00:02;15.00;99.90
55369;DHT22;41247;49.736;8.752;2023-10-08T03:03:43;14.90;99.90
55369;DHT22;41247;49.736;8.752;2023-10-08T03:07:23;15.00;99.90
55369;DHT22;41247;49.736;8.752;2023-10-08T03:11:04;14.90;99.90
55369;DHT22;41247;49.736;8.752;2023-10-08T03:14:45;14.90;99.90
55369;DHT22;41247;49.736;8.752;2023-10-08T03:18:30;14.90;99.90
55369;DHT22;41247;49.736;8.752;2023-10-08T03:22:11;14.90;99.90
55369;DHT22;41247;49.736;8.752;2023-10-08T03:25:57;14.90;99.90
55369;DHT22;41247;49.736;8.752;2023-10-08T03:29:38;14.90;99.90
55369;DHT22;41247;49.736;8.752;2023-10-08T03:33:19;14.90;99.90
55369;DHT22;41247;49.736;8.752;2023-10-08T03:37:00;14.90;99.90
55369;DHT22;41247;49.736;8.752;2023-10-08T03:40:40;14.80;99.90
55369;DHT22;41247;49.736;8.752;2023-10-08T03:44:21;14.90;99.90
55369;DHT22;41247;49.736;8.752;2023-10-08T03:48:01;14.80;99.90
55369;DHT22;41247;49.736;8.752;2023-10-08T03:51:42;14.90;99.90
55369;DHT22;41247;49.736;8.752;2023-10-08T03:55:23;14.90;99.90
55369;DHT22;41247;49.736;8.752;2023-10-08T03:59:03;14.90;99.90
55369;DHT22;41247;49.736;8.752;2023-10-08T04:02:47;14.90;99.90
55369;DHT22;41247;49.736;8.752;2023-10-08T04:06:28;14.80;99.90
55369;DHT22;41247;49.736;8.752;2023-10-08T04:10:09;14.80;99.90
55369;DHT22;41247;49.736;8.752;2023-10-08T04:13:50;14.80;99.90
55369;DHT22;41247;49.736;8.752;2023-10-08T04:17:30;14.70;99.90
55369;DHT22;41247;49.736;8.752;2023-10-08T04:21:11;14.70;99.90
55369;DHT22;41247;49.736;8.752;2023-10-08T04:24:51;14.70;99.90
55369;DHT22;41247;49.736;8.752;2023-10-08T04:28:32;14.70;99.90
55369;DHT22;41247;49.736;8.752;2023-10-08T04:32:13;14.70;99.90
55369;DHT22;41247;49.736;8.752;2023-10-08T04:35:53;14.70;99.90
55369;DHT22;41247;49.736;8.752;2023-10-08T04:39:54;14.70;99.90
55369;DHT22;41247;49.736;8.752;2023-10-08T04:43:42;14.60;99.90
55369;DHT22;41247;49.736;8.752;2023-10-08T04:47:23;14.60;99.90
55369;DHT22;41247;49.736;8.752;2023-10-08T04:51:03;14.60;99.90
55369;DHT22;41247;49.736;8.752;2023-10-08T04:54:44;14.60;99.90
55369;DHT22;41247;49.736;8.752;2023-10-08T04:58:25;14.60;99.90
55369;DHT22;41247;49.736;8.752;2023-10-08T05:07:11;14.70;99.90
55369;DHT22;41247;49.736;8.752;2023-10-08T05:11:30;14.80;99.90
55369;DHT22;41247;49.736;8.752;2023-10-08T05:19:57;14.80;99.90
55369;DHT22;41247;49.736;8.752;2023-10-08T05:23:38;14.80;99.90
55369;DHT22;41247;49.736;8.752;2023-10-08T05:27:19;14.80;99.90
55369;DHT22;41247;49.736;8.752;2023-10-08T05:54:45;14.70;99.90
55369;DHT22;41247;49.736;8.752;2023-10-08T06:08:49;14.70;99.90
55369;DHT22;41247;49.736;8.752;2023-10-08T06:31:17;14.80;99.90
55369;DHT22;41247;49.736;8.752;2023-10-08T06:35:11;14.80;99.90
55369;DHT22;41247;49.736;8.752;2023-10-08T06:43:29;14.80;99.90
55369;DHT22;41247;49.736;8.752;2023-10-08T06:47:10;14.80;99.90
55369;DHT22;41247;49.736;8.752;2023-10-08T06:50:52;14.80;99.90
55369;DHT22;41247;49.736;8.752;2023-10-08T06:54:33;14.80;99.90
55369;DHT22;41247;49.736;8.752;2023-10-08T06:58:17;14.80;99.90
55369;DHT22;41247;49.736;8.752;2023-10-08T07:01:57;14.80;99.90
55369;DHT22;41247;49.736;8.752;2023-10-08T07:05:38;14.70;99.90
55369;DHT22;41247;49.736;8.752;2023-10-08T07:09:19;14.80;99.90
55369;DHT22;41247;49.736;8.752;2023-10-08T07:13:09;14.80;99.90
55369;DHT22;41247;49.736;8.752;2023-10-08T07:16:57;14.90;99.90
55369;DHT22;41247;49.736;8.752;2023-10-08T07:20:40;15.00;99.90
55369;DHT22;41247;49.736;8.752;2023-10-08T07:24:48;15.10;99.90
55369;DHT22;41247;49.736;8.752;2023-10-08T07:28:29;15.10;99.90
55369;DHT22;41247;49.736;8.752;2023-10-08T07:32:19;15.20;99.90
55369;DHT22;41247;49.736;8.752;2023-10-08T07:36:50;15.20;99.90
55369;DHT22;41247;49.736;8.752;2023-10-08T07:40:45;15.30;99.90
55369;DHT22;41247;49.736;8.752;2023-10-08T07:44:31;15.40;99.90
55369;DHT22;41247;49.736;8.752;2023-10-08T07:49:04;15.50;99.90
55369;DHT22;41247;49.736;8.752;2023-10-08T08:07:55;15.90;99.90
55369;DHT22;41247;49.736;8.752;2023-10-08T08:12:00;16.00;99.90
55369;DHT22;41247;49.736;8.752;2023-10-08T16:50:36;18.50;99.90
55369;DHT22;41247;49.736;8.752;2023-10-08T16:54:22;18.10;99.90
55369;DHT22;41247;49.736;8.752;2023-10-08T16:58:02;17.90;99.90
55369;DHT22;41247;49.736;8.752;2023-10-08T17:01:43;17.80;99.90
55369;DHT22;41247;49.736;8.752;2023-10-08T17:05:24;17.70;99.90
55369;DHT22;41247;49.736;8.752;2023-10-08T17:09:04;17.50;99.90
55369;DHT22;41247;49.736;8.752;2023-10-08T17:12:45;17.40;99.90
55369;DHT22;41247;49.736;8.752;2023-10-08T17:16:26;17.30;99.90
55369;DHT22;41247;49.736;8.752;2023-10-08T17:20:06;17.20;99.90
55369;DHT22;41247;49.736;8.752;2023-10-08T17:23:47;17.00;99.90
55369;DHT22;41247;49.736;8.752;2023-10-08T17:27:28;16.90;99.90
55369;DHT22;41247;49.736;8.752;2023-10-08T17:31:09;16.70;99.90
55369;DHT22;41247;49.736;8.752;2023-10-08T17:34:50;16.60;99.90
55369;DHT22;41247;49.736;8.752;2023-10-08T17:38:31;16.50;99.90
55369;DHT22;41247;49.736;8.752;2023-10-08T17:42:11;16.40;99.90
55369;DHT22;41247;49.736;8.752;2023-10-08T17:45:52;16.20;99.90
55369;DHT22;41247;49.736;8.752;2023-10-08T17:49:32;16.20;99.90
55369;DHT22;41247;49.736;8.752;2023-10-08T17:53:13;16.10;99.90
55369;DHT22;41247;49.736;8.752;2023-10-08T17:56:53;16.00;99.90
55369;DHT22;41247;49.736;8.752;2023-10-08T18:00:37;15.90;99.90
55369;DHT22;41247;49.736;8.752;2023-10-08T18:04:18;15.80;99.90
55369;DHT22;41247;49.736;8.752;2023-10-08T18:07:58;15.70;99.90
55369;DHT22;41247;49.736;8.752;2023-10-08T18:11:39;15.60;99.90
55369;DHT22;41247;49.736;8.752;2023-10-08T18:15:20;15.40;99.90
55369;DHT22;41247;49.736;8.752;2023-10-08T18:19:00;15.30;99.90
55369;DHT22;41247;49.736;8.752;2023-10-08T18:22:41;15.20;99.90
55369;DHT22;41247;49.736;8.752;2023-10-08T18:26:21;15.20;99.90
55369;DHT22;41247;49.736;8.752;2023-10-08T18:30:03;15.20;99.90
55369;DHT22;41247;49.736;8.752;2023-10-08T18:33:43;15.10;99.90
55369;DHT22;41247;49.736;8.752;2023-10-08T18:37:24;15.10;99.90
55369;DHT22;41247;49.736;8.752;2023-10-08T18:41:11;15.10;99.90
55369;DHT22;41247;49.736;8.752;2023-10-08T18:44:52;15.10;99.90
55369;DHT22;41247;49.736;8.752;2023-10-08T18:48:32;15.10;99.90
55369;DHT22;41247;49.736;8.752;2023-10-08T18:52:13;15.10;99.90
55369;DHT22;41247;49.736;8.752;2023-10-08T18:56:11;15.10;99.90
55369;DHT22;41247;49.736;8.752;2023-10-08T18:59:53;15.10;99.90
55369;DHT22;41247;49.736;8.752;2023-10-08T19:03:34;15.10;99.90
55369;DHT22;41247;49.736;8.752;2023-10-08T19:07:15;15.10;99.90
55369;DHT22;41247;49.736;8.752;2023-10-08T19:10:56;15.20;99.90
55369;DHT22;41247;49.736;8.752;2023-10-08T19:14:36;15.50;99.90
55369;DHT22;41247;49.736;8.752;2023-10-08T19:18:17;16.10;99.90
55369;DHT22;41247;49.736;8.752;2023-10-08T19:22:00;16.50;99.90
55369;DHT22;41247;49.736;8.752;2023-10-08T19:25:48;16.70;99.90
55369;DHT22;41247;49.736;8.752;2023-10-08T19:29:29;17.00;99.90
55369;DHT22;41247;49.736;8.752;2023-10-08T19:33:10;17.20;99.90
55369;DHT22;41247;49.736;8.752;2023-10-08T19:36:51;17.20;99.90
55369;DHT22;41247;49.736;8.752;2023-10-08T19:40:34;17.30;99.90
55369;DHT22;41247;49.736;8.752;2023-10-08T19:44:16;17.60;99.90
55369;DHT22;41247;49.736;8.752;2023-10-08T19:47:56;17.70;99.90
55369;DHT22;41247;49.736;8.752;2023-10-08T19:51:37;17.80;99.90
55369;DHT22;41247;49.736;8.752;2023-10-08T19:55:18;17.80;99.90
55369;DHT22;41247;49.736;8.752;2023-10-08T19:58:58;17.70;99.90
55369;DHT22;41247;49.736;8.752;2023-10-08T20:02:40;17.80;99.90
55369;DHT22;41247;49.736;8.752;2023-10-08T20:06:21;17.80;99.90
55369;DHT22;41247;49.736;8.752;2023-10-08T20:10:02;17.70;99.90
55369;DHT22;41247;49.736;8.752;2023-10-08T20:13:44;17.50;99.90
55369;DHT22;41247;49.736;8.752;2023-10-08T20:17:24;17.40;99.90
55369;DHT22;41247;49.736;8.752;2023-10-08T20:21:05;17.40;99.90
55369;DHT22;41247;49.736;8.752;2023-10-08T20:24:46;17.30;99.90
55369;DHT22;41247;49.736;8.752;2023-10-08T20:28:26;17.40;99.90
55369;DHT22;41247;49.736;8.752;2023-10-08T20:32:07;17.60;99.90
55369;DHT22;41247;49.736;8.752;2023-10-08T20:35:51;17.50;99.90
55369;DHT22;41247;49.736;8.752;2023-10-08T20:39:32;17.50;99.90
55369;DHT22;41247;49.736;8.752;2023-10-08T20:43:13;17.50;99.90
55369;DHT22;41247;49.736;8.752;2023-10-08T20:46:57;17.50;99.90
55369;DHT22;41247;49.736;8.752;2023-10-08T20:50:37;17.40;99.90
55369;DHT22;41247;49.736;8.752;2023-10-08T20:54:18;17.50;99.90
55369;DHT22;41247;49.736;8.752;2023-10-08T20:57:58;17.50;99.90
55369;DHT22;41247;49.736;8.752;2023-10-08T21:01:39;17.50;99.90
55369;DHT22;41247;49.736;8.752;2023-10-08T21:05:21;17.50;99.90
55369;DHT22;41247;49.736;8.752;2023-10-08T21:09:01;17.50;99.90
55369;DHT22;41247;49.736;8.752;2023-10-08T21:12:43;17.40;99.90
55369;DHT22;41247;49.736;8.752;2023-10-08T21:16:25;17.40;99.90
55369;DHT22;41247;49.736;8.752;2023-10-08T21:20:09;17.30;99.90
55369;DHT22;41247;49.736;8.752;2023-10-08T21:23:50;17.30;99.90
55369;DHT22;41247;49.736;8.752;2023-10-08T21:27:30;17.20;99.90
55369;DHT22;41247;49.736;8.752;2023-10-08T21:31:11;17.00;99.90
55369;DHT22;41247;49.736;8.752;2023-10-08T21:34:51;16.90;99.90
55369;DHT22;41247;49.736;8.752;2023-10-08T21:38:32;16.80;99.90
55369;DHT22;41247;49.736;8.752;2023-10-08T21:42:13;16.70;99.90
55369;DHT22;41247;49.736;8.752;2023-10-08T21:45:53;16.60;99.90
55369;DHT22;41247;49.736;8.752;2023-10-08T21:49:34;16.50;99.90
55369;DHT22;41247;49.736;8.752;2023-10-08T21:53:14;16.50;99.90
55369;DHT22;41247;49.736;8.752;2023-10-08T21:56:55;16.40;99.90
55369;DHT22;41247;49.736;8.752;2023-10-08T22:00:36;16.40;99.90
55369;DHT22;41247;49.736;8.752;2023-10-08T22:04:16;16.40;99.90
55369;DHT22;41247;49.736;8.752;2023-10-08T22:08:01;16.40;99.90
55369;DHT22;41247;49.736;8.752;2023-10-08T22:11:41;16.40;99.90
55369;DHT22;41247;49.736;8.752;2023-10-08T22:15:22;16.40;99.90
55369;DHT22;41247;49.736;8.752;2023-10-08T22:19:03;16.50;99.90
55369;DHT22;41247;49.736;8.752;2023-10-08T22:22:43;16.70;99.90
55369;DHT22;41247;49.736;8.752;2023-10-08T22:26:24;16.90;99.90
55369;DHT22;41247;49.736;8.752;2023-10-08T22:30:17;16.90;99.90
55369;DHT22;41247;49.736;8.752;2023-10-08T22:33:57;16.90;99.90
55369;DHT22;41247;49.736;8.752;2023-10-08T22:37:38;17.00;99.90
55369;DHT22;41247;49.736;8.752;2023-10-08T22:41:18;17.10;99.90
55369;DHT22;41247;49.736;8.752;2023-10-08T22:44:59;17.20;99.90
55369;DHT22;41247;49.736;8.752;2023-10-08T22:48:40;17.20;99.90
55369;DHT22;41247;49.736;8.752;2023-10-08T22:52:21;17.20;99.90
55369;DHT22;41247;49.736;8.752;2023-10-08T22:56:02;17.30;99.90
55369;DHT22;41247;49.736;8.752;2023-10-08T22:59:42;17.30;99.90
55369;DHT22;41247;49.736;8.752;2023-10-08T23:03:24;17.30;99.90
55369;DHT22;41247;49.736;8.752;2023-10-08T23:07:04;17.20;99.90
55369;DHT22;41247;49.736;8.752;2023-10-08T23:10:45;17.20;99.90
55369;DHT22;41247;49.736;8.752;2023-10-08T23:14:27;17.20;99.90
55369;DHT22;41247;49.736;8.752;2023-10-08T23:18:07;17.20;99.90
55369;DHT22;41247;49.736;8.752;2023-10-08T23:21:49;17.10;99.90
55369;DHT22;41247;49.736;8.752;2023-10-08T23:25:35;17.00;99.90
55369;DHT22;41247;49.736;8.752;2023-10-08T23:29:15;16.90;99.90
55369;DHT22;41247;49.736;8.752;2023-10-08T23:32:56;16.90;99.90
55369;DHT22;41247;49.736;8.752;2023-10-08T23:36:38;16.90;99.90
55369;DHT22;41247;49.736;8.752;2023-10-08T23:40:18;16.90;99.90
55369;DHT22;41247;49.736;8.752;2023-10-08T23:43:59;16.90;99.90
55369;DHT22;41247;49.736;8.752;2023-10-08T23:47:41;16.90;99.90
55369;DHT22;41247;49.736;8.752;2023-10-08T23:51:22;17.00;99.90
55369;DHT22;41247;49.736;8.752;2023-10-08T23:55:03;17.00;99.90
55369;DHT22;41247;49.736;8.752;2023-10-08T23:58:44;17.00;99.90
